createdAt,value
2023-02-06T00:02:28.544Z,52.98
2023-02-06T00:05:00.897Z,52.90
2023-02-06T00:07:33.617Z,52.83
2023-02-06T00:10:06.308Z,52.65
2023-02-06T00:12:39.473Z,52.46
2023-02-06T00:15:12.613Z,52.78
2023-02-06T00:17:44.999Z,52.81
2023-02-06T00:20:17.434Z,52.68
2023-02-06T00:22:49.664Z,52.45
2023-02-06T00:25:21.944Z,52.60
2023-02-06T00:27:54.198Z,52.90
2023-02-06T00:30:26.586Z,52.90
2023-02-06T00:32:59.052Z,52.67
2023-02-06T00:35:31.406Z,52.70
2023-02-06T00:38:03.771Z,52.75
2023-02-06T00:40:36.047Z,52.62
2023-02-06T00:43:08.466Z,52.63
2023-02-06T00:45:40.800Z,52.87
2023-02-06T00:48:16.731Z,52.64
2023-02-06T00:50:48.819Z,52.56
2023-02-06T00:53:21.196Z,52.86
2023-02-06T00:55:53.486Z,52.76
2023-02-06T00:58:25.789Z,52.79
2023-02-06T01:00:58.051Z,52.83
2023-02-06T01:03:30.446Z,52.94
2023-02-06T01:06:02.842Z,52.85
2023-02-06T01:08:35.239Z,52.93
2023-02-06T01:11:14.129Z,53.06
2023-02-06T01:13:46.921Z,53.24
2023-02-06T01:16:21.562Z,53.16
2023-02-06T01:18:54.345Z,53.26
2023-02-06T01:21:27.640Z,52.98
2023-02-06T01:23:59.979Z,53.09
2023-02-06T01:26:32.438Z,53.25
2023-02-06T01:29:05.056Z,53.20
2023-02-06T01:31:37.537Z,53.27
2023-02-06T01:34:11.297Z,53.05
2023-02-06T01:36:43.579Z,53.21
2023-02-06T01:39:15.863Z,53.11
2023-02-06T01:41:48.270Z,53.07
2023-02-06T01:44:23.020Z,53.09
2023-02-06T01:46:57.451Z,53.24
2023-02-06T01:49:33.621Z,53.48
2023-02-06T01:52:11.477Z,53.14
2023-02-06T01:54:44.651Z,52.94
2023-02-06T01:57:18.332Z,53.16
2023-02-06T01:59:54.494Z,53.16
2023-02-06T02:02:29.871Z,53.15
2023-02-06T02:05:04.318Z,52.97
2023-02-06T02:07:42.767Z,53.14
2023-02-06T02:10:14.996Z,53.08
2023-02-06T02:12:47.507Z,53.00
2023-02-06T02:15:20.004Z,53.16
2023-02-06T02:18:04.802Z,53.01
2023-02-06T02:20:57.243Z,52.94
2023-02-06T02:23:41.493Z,52.63
2023-02-06T02:26:52.153Z,52.49
2023-02-06T02:29:51.455Z,52.62
2023-02-06T02:33:05.711Z,52.65
2023-02-06T02:35:49.774Z,52.70
2023-02-06T02:38:35.314Z,52.71
2023-02-06T02:41:17.451Z,52.69
2023-02-06T02:43:58.559Z,52.74
2023-02-06T02:46:36.496Z,52.85
2023-02-06T02:49:12.151Z,53.00
2023-02-06T02:51:46.440Z,52.93
2023-02-06T02:54:19.289Z,52.78
2023-02-06T02:56:51.555Z,52.76
2023-02-06T02:59:29.690Z,52.51
2023-02-06T03:02:05.115Z,52.58
2023-02-06T03:04:42.356Z,52.50
2023-02-06T03:07:26.023Z,52.64
2023-02-06T03:10:07.050Z,52.73
2023-02-06T03:12:45.842Z,52.50
2023-02-06T03:15:26.483Z,52.73
2023-02-06T03:18:03.633Z,52.65
2023-02-06T03:20:38.402Z,52.55
2023-02-06T03:23:13.278Z,52.73
2023-02-06T03:25:48.994Z,52.89
2023-02-06T03:28:27.089Z,52.61
2023-02-06T03:31:02.681Z,52.76
2023-02-06T03:33:41.226Z,52.60
2023-02-06T03:36:17.214Z,52.62
2023-02-06T03:38:49.280Z,52.27
2023-02-06T03:41:25.325Z,52.51
2023-02-06T03:43:59.749Z,52.27
2023-02-06T03:46:34.058Z,52.41
2023-02-06T03:49:09.257Z,52.47
2023-02-06T03:51:46.400Z,52.36
2023-02-06T03:54:22.860Z,52.34
2023-02-06T03:56:58.473Z,52.42
2023-02-06T03:59:31.206Z,52.35
2023-02-06T04:02:05.933Z,52.60
2023-02-06T04:04:41.610Z,52.32
2023-02-06T04:07:19.484Z,52.42
2023-02-06T04:09:51.806Z,52.58
2023-02-06T04:12:24.972Z,52.59
2023-02-06T04:14:57.510Z,52.67
2023-02-06T04:17:46.485Z,52.28
2023-02-06T04:20:22.546Z,52.44
2023-02-06T04:22:54.852Z,52.82
2023-02-06T04:25:27.400Z,52.65
2023-02-06T04:27:59.787Z,52.78
2023-02-06T04:30:32.298Z,52.84
2023-02-06T04:33:04.925Z,52.98
2023-02-06T04:35:37.686Z,52.97
2023-02-06T04:38:10.252Z,52.95
2023-02-06T04:40:42.587Z,53.22
2023-02-06T04:43:14.861Z,53.30
2023-02-06T04:45:47.797Z,53.13
2023-02-06T04:48:20.198Z,52.94
2023-02-06T04:50:54.030Z,53.11
2023-02-06T04:53:26.250Z,53.30
2023-02-06T04:56:05.213Z,53.01
2023-02-06T04:58:38.353Z,53.17
2023-02-06T05:01:10.699Z,53.14
2023-02-06T05:03:43.093Z,53.32
2023-02-06T05:06:15.970Z,53.17
2023-02-06T05:08:48.226Z,53.42
2023-02-06T05:11:20.529Z,53.28
2023-02-06T05:13:52.899Z,53.41
2023-02-06T05:16:25.496Z,53.42
2023-02-06T05:18:58.262Z,53.60
2023-02-06T05:21:30.641Z,53.60
2023-02-06T05:24:03.023Z,53.65
2023-02-06T05:26:36.970Z,53.84
2023-02-06T05:29:10.129Z,53.73
2023-02-06T05:31:42.450Z,53.78
2023-02-06T05:34:14.800Z,53.71
2023-02-06T05:36:47.199Z,53.93
2023-02-06T05:39:19.571Z,54.15
2023-02-06T05:41:51.864Z,54.06
2023-02-06T05:44:24.130Z,53.89
2023-02-06T05:46:56.608Z,53.96
2023-02-06T05:49:28.941Z,54.07
2023-02-06T05:52:01.339Z,54.05
2023-02-06T05:54:33.567Z,54.12
2023-02-06T05:57:06.041Z,54.09
2023-02-06T05:59:38.314Z,54.05
2023-02-06T06:02:10.828Z,53.94
2023-02-06T06:04:43.280Z,53.93
2023-02-06T06:07:15.624Z,54.10
2023-02-06T06:09:48.041Z,54.34
2023-02-06T06:12:20.218Z,54.02
2023-02-06T06:14:52.531Z,53.97
2023-02-06T06:17:24.896Z,54.08
2023-02-06T06:19:57.067Z,54.11
2023-02-06T06:22:29.398Z,54.12
2023-02-06T06:25:01.892Z,54.16
2023-02-06T06:27:34.498Z,54.08
2023-02-06T06:30:08.118Z,53.71
2023-02-06T06:32:41.228Z,53.83
2023-02-06T06:35:13.604Z,53.70
2023-02-06T06:37:45.964Z,53.86
2023-02-06T06:40:18.441Z,53.91
2023-02-06T06:42:50.741Z,53.64
2023-02-06T06:45:23.124Z,53.72
2023-02-06T06:47:55.513Z,53.96
2023-02-06T06:50:27.915Z,53.75
2023-02-06T06:53:00.187Z,54.22
2023-02-06T06:55:32.899Z,54.24
2023-02-06T06:58:05.278Z,54.17
2023-02-06T07:00:38.737Z,53.91
2023-02-06T07:03:11.920Z,54.22
2023-02-06T07:05:44.242Z,54.10
2023-02-06T07:08:16.617Z,54.29
2023-02-06T07:10:50.308Z,54.31
2023-02-06T07:13:22.679Z,54.05
2023-02-06T07:15:55.280Z,53.86
2023-02-06T07:18:27.586Z,53.97
2023-02-06T07:21:00.372Z,54.22
2023-02-06T07:23:32.715Z,53.89
2023-02-06T07:26:05.121Z,53.75
2023-02-06T07:28:38.126Z,53.98
2023-02-06T07:31:11.125Z,53.89
2023-02-06T07:33:43.498Z,53.81
2023-02-06T07:36:18.609Z,54.22
2023-02-06T07:38:51.025Z,54.15
2023-02-06T07:41:23.346Z,53.73
2023-02-06T07:43:55.691Z,54.01
2023-02-06T07:46:28.367Z,53.94
2023-02-06T07:49:00.827Z,53.57
2023-02-06T07:51:33.071Z,53.71
2023-02-06T07:54:05.635Z,53.50
2023-02-06T07:56:38.004Z,53.58
2023-02-06T07:59:10.472Z,53.83
2023-02-06T08:01:42.867Z,53.61
2023-02-06T08:04:15.864Z,53.50
2023-02-06T08:06:48.090Z,53.71
2023-02-06T08:09:20.395Z,53.50
2023-02-06T08:11:52.819Z,53.41
2023-02-06T08:14:25.741Z,53.30
2023-02-06T08:16:58.145Z,53.48
2023-02-06T08:19:30.550Z,53.40
2023-02-06T08:22:02.944Z,53.37
2023-02-06T08:24:35.266Z,53.26
2023-02-06T08:27:08.142Z,53.44
2023-02-06T08:29:42.807Z,53.34
2023-02-06T08:32:15.238Z,52.99
2023-02-06T08:34:47.508Z,53.52
2023-02-06T08:37:19.815Z,53.14
2023-02-06T08:39:52.169Z,52.86
2023-02-06T08:42:24.575Z,52.98
2023-02-06T08:44:56.985Z,53.07
2023-02-06T08:47:29.375Z,52.72
2023-02-06T08:50:03.524Z,52.87
2023-02-06T08:52:36.519Z,52.69
2023-02-06T08:55:10.059Z,53.06
2023-02-06T08:57:42.405Z,52.59
2023-02-06T09:00:17.572Z,52.44
2023-02-06T09:02:49.855Z,52.67
2023-02-06T09:05:22.845Z,52.43
2023-02-06T09:07:55.315Z,52.12
2023-02-06T09:10:28.341Z,52.37
2023-02-06T09:13:00.846Z,52.29
2023-02-06T09:15:35.041Z,52.68
2023-02-06T09:18:07.668Z,52.39
2023-02-06T09:20:40.165Z,52.60
2023-02-06T09:23:12.474Z,52.59
2023-02-06T09:25:44.873Z,52.67
2023-02-06T09:28:18.141Z,52.39
2023-02-06T09:30:51.444Z,52.34
2023-02-06T09:33:24.000Z,52.02
2023-02-06T09:36:07.547Z,52.22
2023-02-06T09:38:42.729Z,52.16
2023-02-06T09:41:19.907Z,52.14
2023-02-06T09:43:55.860Z,52.37
2023-02-06T09:46:28.784Z,52.46
2023-02-06T09:49:04.606Z,52.39
2023-02-06T09:51:46.236Z,52.40
2023-02-06T09:54:32.636Z,52.61
2023-02-06T09:57:09.611Z,52.61
2023-02-06T09:59:46.088Z,52.78
2023-02-06T10:02:32.236Z,52.67
2023-02-06T10:05:17.558Z,52.62
2023-02-06T10:08:00.442Z,52.51
2023-02-06T10:10:39.835Z,52.42
2023-02-06T10:13:19.090Z,52.44
2023-02-06T10:15:54.948Z,52.36
2023-02-06T10:18:33.773Z,52.21
2023-02-06T10:21:24.052Z,52.32
2023-02-06T10:24:03.067Z,52.65
2023-02-06T10:26:39.291Z,52.60
2023-02-06T10:29:26.582Z,52.46
2023-02-06T10:32:12.357Z,52.40
2023-02-06T10:34:59.176Z,52.37
2023-02-06T10:37:51.984Z,52.10
2023-02-06T10:40:36.384Z,52.13
2023-02-06T10:43:18.980Z,52.23
2023-02-06T10:45:58.523Z,52.05
2023-02-06T10:48:36.086Z,52.06
2023-02-06T10:51:16.932Z,52.04
2023-02-06T10:53:53.258Z,51.99
2023-02-06T10:56:29.181Z,51.64
2023-02-06T10:59:01.475Z,51.42
2023-02-06T11:01:39.231Z,51.80
2023-02-06T11:04:19.543Z,52.01
2023-02-06T11:06:55.261Z,51.37
2023-02-06T11:09:28.001Z,51.57
2023-02-06T11:12:02.724Z,51.59
2023-02-06T11:14:40.183Z,51.35
2023-02-06T11:17:15.450Z,51.47
2023-02-06T11:19:50.980Z,51.18
2023-02-06T11:22:38.840Z,51.40
2023-02-06T11:25:26.877Z,51.19
2023-02-06T11:27:59.792Z,51.14
2023-02-06T11:30:36.840Z,51.23
2023-02-06T11:33:22.720Z,51.29
2023-02-06T11:36:00.016Z,51.29
2023-02-06T11:38:33.560Z,51.25
2023-02-06T11:41:18.096Z,51.18
2023-02-06T11:43:54.959Z,51.05
2023-02-06T11:46:30.910Z,51.17
2023-02-06T11:49:26.391Z,50.99
2023-02-06T11:52:00.777Z,50.76
2023-02-06T11:54:35.470Z,50.71
2023-02-06T11:57:20.555Z,50.90
2023-02-06T11:59:56.202Z,50.70
2023-02-06T12:02:31.394Z,50.50
2023-02-06T12:05:08.485Z,50.60
2023-02-06T12:07:44.275Z,50.65
2023-02-06T12:10:19.675Z,50.45
2023-02-06T12:12:55.409Z,50.53
2023-02-06T12:15:46.674Z,50.39
2023-02-06T12:18:23.549Z,50.39
2023-02-06T12:20:59.240Z,50.59
2023-02-06T12:23:36.637Z,50.56
2023-02-06T12:26:13.339Z,50.49
2023-02-06T12:28:57.398Z,50.38
2023-02-06T12:31:37.860Z,50.34
2023-02-06T12:34:18.574Z,50.43
2023-02-06T12:37:00.548Z,50.31
2023-02-06T12:39:34.294Z,50.38
2023-02-06T12:42:29.191Z,50.37
2023-02-06T12:45:06.106Z,50.25
2023-02-06T12:47:44.486Z,50.15
2023-02-06T12:50:23.266Z,50.20
2023-02-06T12:53:02.782Z,50.21
2023-02-06T12:55:40.649Z,50.25
2023-02-06T12:58:29.552Z,50.25
2023-02-06T13:01:27.866Z,50.22
2023-02-06T13:04:06.751Z,50.13
2023-02-06T13:06:49.417Z,50.24
2023-02-06T13:09:26.232Z,49.96
2023-02-06T13:12:13.022Z,50.19
2023-02-06T13:14:51.396Z,50.08
2023-02-06T13:17:26.708Z,50.31
2023-02-06T13:20:10.920Z,50.25
2023-02-06T13:22:47.004Z,50.07
2023-02-06T13:25:50.406Z,50.04
2023-02-06T13:28:58.980Z,49.90
2023-02-06T13:31:34.620Z,50.04
2023-02-06T13:34:15.715Z,50.14
2023-02-06T13:36:54.371Z,50.10
2023-02-06T13:39:32.659Z,50.12
2023-02-06T13:42:36.724Z,50.45
2023-02-06T13:45:11.698Z,50.18
2023-02-06T13:48:08.195Z,50.50
2023-02-06T13:50:58.468Z,50.25
2023-02-06T13:54:02.941Z,50.30
2023-02-06T13:57:03.956Z,50.27
2023-02-06T13:59:42.324Z,50.44
2023-02-06T14:02:21.118Z,50.36
2023-02-06T14:04:54.536Z,50.33
2023-02-06T14:07:55.635Z,50.50
2023-02-06T14:10:49.069Z,50.47
2023-02-06T14:13:35.792Z,50.38
2023-02-06T14:16:23.159Z,50.46
2023-02-06T14:19:01.819Z,50.23
2023-02-06T14:21:46.048Z,50.20
2023-02-06T14:24:40.806Z,50.38
2023-02-06T14:27:26.373Z,50.34
2023-02-06T14:30:09.061Z,50.32
2023-02-06T14:32:54.035Z,50.05
2023-02-06T14:35:49.121Z,50.00
2023-02-06T14:38:53.136Z,50.00
2023-02-06T14:41:28.843Z,49.82
2023-02-06T14:44:01.437Z,50.29
2023-02-06T14:46:34.437Z,50.01
2023-02-06T14:49:06.964Z,50.05
2023-02-06T14:51:41.600Z,49.82
2023-02-06T14:54:32.821Z,49.88
2023-02-06T14:57:07.145Z,49.69
2023-02-06T14:59:39.479Z,49.65
2023-02-06T15:02:22.951Z,49.65
2023-02-06T15:04:55.793Z,49.62
2023-02-06T15:07:32.415Z,49.33
2023-02-06T15:10:09.951Z,49.59
2023-02-06T15:12:43.010Z,49.48
2023-02-06T15:15:21.461Z,49.55
2023-02-06T15:18:06.661Z,49.30
2023-02-06T15:20:41.317Z,49.57
2023-02-06T15:23:19.374Z,49.51
2023-02-06T15:26:05.402Z,49.31
2023-02-06T15:28:39.490Z,49.47
2023-02-06T15:31:21.164Z,49.43
2023-02-06T15:33:56.224Z,49.70
2023-02-06T15:36:33.878Z,49.53
2023-02-06T15:39:10.411Z,49.58
2023-02-06T15:41:46.183Z,49.47
2023-02-06T15:44:27.622Z,49.65
2023-02-06T15:47:02.806Z,49.44
2023-02-06T15:49:42.453Z,49.41
2023-02-06T15:52:31.981Z,49.54
2023-02-06T15:55:05.377Z,49.59
2023-02-06T15:57:42.158Z,49.71
2023-02-06T16:00:25.603Z,49.31
2023-02-06T16:03:02.956Z,49.49
2023-02-06T16:05:40.693Z,49.63
2023-02-06T16:08:19.076Z,49.77
2023-02-06T16:10:55.019Z,49.71
2023-02-06T16:13:30.023Z,49.87
2023-02-06T16:16:19.669Z,50.13
2023-02-06T16:18:53.523Z,50.08
2023-02-06T16:21:32.478Z,50.18
2023-02-06T16:24:16.765Z,50.38
2023-02-06T16:26:52.307Z,50.20
2023-02-06T16:29:28.943Z,50.35
2023-02-06T16:32:03.985Z,50.92
2023-02-06T16:34:40.769Z,50.82
2023-02-06T16:37:16.965Z,50.95
2023-02-06T16:39:49.710Z,50.78
2023-02-06T16:42:24.451Z,51.11
2023-02-06T16:45:00.575Z,51.17
2023-02-06T16:47:33.063Z,51.79
2023-02-06T16:50:06.034Z,51.77
2023-02-06T16:52:40.703Z,52.00
2023-02-06T16:55:22.159Z,51.91
2023-02-06T16:57:58.831Z,52.17
2023-02-06T17:00:33.254Z,52.23
2023-02-06T17:03:06.027Z,52.26
2023-02-06T17:05:38.862Z,52.66
2023-02-06T17:08:19.075Z,52.56
2023-02-06T17:10:51.413Z,52.42
2023-02-06T17:13:25.389Z,52.46
2023-02-06T17:15:57.924Z,52.30
2023-02-06T17:18:30.399Z,52.40
2023-02-06T17:21:02.756Z,52.60
2023-02-06T17:23:35.355Z,52.49
2023-02-06T17:26:07.878Z,52.25
2023-02-06T17:28:40.489Z,52.34
2023-02-06T17:31:13.139Z,52.21
2023-02-06T17:33:45.861Z,52.53
2023-02-06T17:36:22.001Z,52.33
2023-02-06T17:38:54.407Z,52.33
2023-02-06T17:41:26.675Z,52.41
2023-02-06T17:43:59.016Z,52.55
2023-02-06T17:46:31.473Z,52.41
2023-02-06T17:49:03.859Z,52.65
2023-02-06T17:51:36.208Z,52.40
2023-02-06T17:54:09.076Z,52.43
2023-02-06T17:56:41.519Z,52.35
2023-02-06T17:59:13.893Z,52.36
2023-02-06T18:01:46.356Z,52.55
2023-02-06T18:04:21.416Z,52.32
2023-02-06T18:06:53.792Z,52.41
2023-02-06T18:09:26.069Z,52.40
2023-02-06T18:11:58.486Z,52.15
2023-02-06T18:14:30.924Z,52.47
2023-02-06T18:17:04.079Z,52.48
2023-02-06T18:19:42.091Z,52.50
2023-02-06T18:22:17.946Z,52.53
2023-02-06T18:24:51.382Z,52.84
2023-02-06T18:27:23.840Z,52.84
2023-02-06T18:29:56.521Z,53.01
2023-02-06T18:32:28.932Z,53.13
2023-02-06T18:35:02.006Z,52.98
2023-02-06T18:37:35.142Z,53.30
2023-02-06T18:40:08.551Z,53.28
2023-02-06T18:42:54.163Z,53.56
2023-02-06T18:45:31.328Z,53.56
2023-02-06T18:48:04.804Z,53.39
2023-02-06T18:50:39.814Z,53.61
2023-02-06T18:53:12.463Z,53.87
2023-02-06T18:55:44.835Z,54.03
2023-02-06T18:58:17.217Z,53.85
2023-02-06T19:00:49.539Z,54.47
2023-02-06T19:03:22.302Z,54.55
2023-02-06T19:05:55.027Z,54.33
2023-02-06T19:08:27.400Z,54.37
2023-02-06T19:11:01.091Z,54.81
2023-02-06T19:13:34.363Z,54.53
2023-02-06T19:16:09.096Z,54.71
2023-02-06T19:18:42.921Z,54.61
2023-02-06T19:21:17.354Z,55.15
2023-02-06T19:23:55.461Z,55.17
2023-02-06T19:26:28.630Z,55.19
2023-02-06T19:29:01.235Z,55.25
2023-02-06T19:31:35.048Z,55.20
2023-02-06T19:34:07.937Z,55.08
2023-02-06T19:36:40.329Z,55.30
2023-02-06T19:39:14.917Z,55.05
2023-02-06T19:41:47.235Z,55.19
2023-02-06T19:44:19.732Z,55.17
2023-02-06T19:46:52.347Z,55.36
2023-02-06T19:49:24.689Z,55.27
2023-02-06T19:51:57.123Z,55.36
2023-02-06T19:54:29.588Z,55.28
2023-02-06T19:57:02.032Z,55.29
2023-02-06T19:59:34.374Z,55.41
2023-02-06T20:02:06.665Z,55.34
2023-02-06T20:04:39.916Z,55.25
2023-02-06T20:07:12.437Z,55.27
2023-02-06T20:09:44.824Z,55.70
2023-02-06T20:12:18.181Z,55.37
2023-02-06T20:14:50.597Z,55.26
2023-02-06T20:17:23.941Z,54.90
2023-02-06T20:19:59.424Z,54.96
2023-02-06T20:22:31.751Z,55.17
2023-02-06T20:25:04.042Z,54.96
2023-02-06T20:27:36.357Z,54.93
2023-02-06T20:30:10.917Z,55.18
2023-02-06T20:32:43.179Z,54.83
2023-02-06T20:35:15.499Z,54.88
2023-02-06T20:37:47.706Z,54.64
2023-02-06T20:40:20.614Z,54.65
2023-02-06T20:42:52.958Z,54.03
2023-02-06T20:45:25.335Z,53.57
2023-02-06T20:47:57.661Z,53.63
2023-02-06T20:50:30.699Z,53.16
2023-02-06T20:53:03.499Z,53.26
2023-02-06T20:55:35.871Z,53.30
2023-02-06T20:58:08.426Z,53.36
2023-02-06T21:00:41.765Z,53.14
2023-02-06T21:03:14.294Z,52.86
2023-02-06T21:05:55.391Z,52.75
2023-02-06T21:08:29.089Z,52.55
2023-02-06T21:11:01.842Z,52.52
2023-02-06T21:13:36.747Z,52.51
2023-02-06T21:16:13.373Z,52.17
2023-02-06T21:18:45.961Z,52.29
2023-02-06T21:21:18.557Z,52.04
2023-02-06T21:23:51.314Z,52.15
2023-02-06T21:26:23.912Z,52.08
2023-02-06T21:28:58.332Z,51.72
2023-02-06T21:31:37.345Z,51.89
2023-02-06T21:34:14.416Z,51.74
2023-02-06T21:36:48.224Z,51.83
2023-02-06T21:39:22.731Z,51.72
2023-02-06T21:41:55.217Z,51.42
2023-02-06T21:44:28.836Z,51.58
2023-02-06T21:47:01.300Z,51.49
2023-02-06T21:49:33.662Z,51.29
2023-02-06T21:52:06.401Z,51.26
2023-02-06T21:54:39.091Z,51.10
2023-02-06T21:57:11.404Z,51.28
2023-02-06T21:59:43.818Z,50.90
2023-02-06T22:02:16.118Z,51.02
2023-02-06T22:04:48.519Z,51.11
2023-02-06T22:07:21.002Z,51.32
2023-02-06T22:09:53.314Z,50.78
2023-02-06T22:12:25.753Z,50.50
2023-02-06T22:14:58.014Z,50.72
2023-02-06T22:17:32.053Z,50.41
2023-02-06T22:20:04.611Z,50.12
2023-02-06T22:22:38.861Z,50.40
2023-02-06T22:25:12.720Z,50.36
2023-02-06T22:27:45.200Z,50.02
2023-02-06T22:30:17.942Z,50.12
2023-02-06T22:32:50.292Z,49.78
2023-02-06T22:35:22.718Z,49.79
2023-02-06T22:37:55.004Z,49.71
2023-02-06T22:40:27.227Z,49.85
2023-02-06T22:42:59.497Z,49.81
2023-02-06T22:45:31.998Z,49.72
2023-02-06T22:48:04.225Z,49.40
2023-02-06T22:50:38.231Z,49.55
2023-02-06T22:53:29.342Z,49.28
2023-02-06T22:56:21.009Z,49.05
2023-02-06T22:58:54.570Z,49.40
2023-02-06T23:01:30.730Z,48.96
2023-02-06T23:04:05.027Z,49.17
2023-02-06T23:06:38.057Z,48.80
2023-02-06T23:09:13.625Z,49.06
2023-02-06T23:11:46.547Z,48.97
2023-02-06T23:14:19.860Z,48.88
2023-02-06T23:16:52.621Z,49.19
2023-02-06T23:19:25.072Z,49.16
2023-02-06T23:21:57.761Z,48.76
2023-02-06T23:24:30.312Z,48.79
2023-02-06T23:27:02.714Z,49.02
2023-02-06T23:29:35.014Z,48.79
2023-02-06T23:32:07.441Z,48.75
2023-02-06T23:34:40.131Z,48.90
2023-02-06T23:37:12.608Z,48.76
2023-02-06T23:39:44.985Z,48.97
2023-02-06T23:42:17.243Z,48.68
2023-02-06T23:44:49.523Z,48.93
2023-02-06T23:47:21.884Z,49.15
2023-02-06T23:49:54.317Z,48.72
2023-02-06T23:52:26.690Z,48.52
2023-02-06T23:54:58.927Z,48.89
2023-02-06T23:57:31.251Z,48.45
